Terminal Aerodrome Forecast
Issued by NWS

Home | Current Version | Previous Version | Graphics & Text | Print | Product List | Glossary On
Versions: 1 2 3 4 5 6 7 8 9 10 11 12 13 14 15 16
000
FTUS43 KBIS 211100
TAFJMS
TAF
KJMS 211130Z 2112/2212 30014KT P6SM SCT015 BKN025
      TEMPO 2112/2114 SCT009 BKN015
     FM211400 33014G18KT P6SM SCT008 BKN025
     FM211700 33018G25KT P6SM SCT035
     FM211900 33013G18KT P6SM SKC
     FM220000 35008KT P6SM SKC
     FM220600 20004KT P6SM FEW300=

USA.gov is the U.S. government's official web portal to all federal, state and local government web resources and services.